Porto Di Livorno — IFPU2 — position and weather

sailwx.info

Track history (hours):
 
Tides and Currents Weather Stations Pressure Air Temp Water Temp Dewpoint Dewpoint Depression Visibility Wind Speed Wind Dir Waves Ship Positions

Porto Di Livorno

Last reported at 2014-Dec-18 16:33 UTC. Time now 2014-Dec-19 12:57 UTC.
Position N 43°34' E 010°18'.

Length 24 m; draft 6.1 m.

Type: Tug. MMSI: 247194299.

Date/timePositionNaut miles runAvg speedWind from/ knotsBaromVisibWave heightAir tempDewpointWater temp
2014-Dec-18 16:33N 43°34' E 010°18'0 0.0
2014-Dec-18 15:33N 43°34' E 010°18'0 0.0
2014-Dec-18 14:33N 43°34' E 010°18'0 0.0
2014-Dec-18 13:33N 43°34' E 010°18'0 0.0
2014-Dec-18 12:33N 43°34' E 010°18'2 1.8
2014-Dec-18 11:33N 43°32' E 010°17'2 2.2
2014-Dec-18 10:34N 43°34' E 010°18'2 1.9
2014-Dec-18 09:33N 43°32' E 010°17'1 1.1
2014-Dec-18 08:34N 43°33' E 010°18'1 1.3
2014-Dec-18 07:34N 43°32' E 010°17'0 0.4
2014-Dec-18 06:33N 43°32' E 010°17'3 2.9
2014-Dec-18 05:33N 43°35' E 010°18'1 1.0
2014-Dec-18 04:33N 43°34' E 010°18'0 0.0
2014-Dec-18 03:33N 43°34' E 010°18'0 0.0
2014-Dec-18 02:33N 43°34' E 010°18'0 0.0
2014-Dec-18 01:33N 43°34' E 010°18'1 0.9
2014-Dec-18 00:34N 43°34' E 010°18'1 0.9
2014-Dec-17 23:33N 43°34' E 010°18'0 0.0
2014-Dec-17 22:33N 43°34' E 010°18'0 0.0
2014-Dec-17 21:33N 43°34' E 010°18'1 1.2
2014-Dec-17 20:33N 43°35' E 010°19'1 1.2
2014-Dec-17 19:33N 43°34' E 010°18'0 0.0
2014-Dec-17 18:33N 43°34' E 010°18'0 0.0
2014-Dec-17 17:33N 43°34' E 010°18'0 0.0
2014-Dec-17 14:33N 43°34' E 010°18'0 0.0
2014-Dec-17 13:33N 43°34' E 010°18'0 0.0
2014-Dec-17 12:33N 43°34' E 010°18'0 0.0
2014-Dec-17 11:33N 43°34' E 010°18'0 0.0
2014-Dec-17 10:33N 43°34' E 010°18'0 0.0
2014-Dec-17 09:33N 43°34' E 010°18'0 0.0
2014-Dec-17 08:33N 43°34' E 010°18'0 0.0
2014-Dec-17 07:33N 43°34' E 010°18'0 0.0
2014-Dec-17 06:33N 43°34' E 010°18'0 0.0
2014-Dec-16 16:33N 43°34' E 010°18'0 0.0
2014-Dec-16 15:33N 43°34' E 010°18'0 0.0
2014-Dec-16 14:33N 43°34' E 010°18'0 0.0
2014-Dec-16 13:33N 43°34' E 010°18'0 0.0
2014-Dec-16 12:33N 43°34' E 010°18'0 0.5
2014-Dec-16 11:33N 43°34' E 010°18'0 0.5
2014-Dec-16 10:33N 43°34' E 010°18'0 0.0
2014-Dec-16 09:33N 43°34' E 010°18'0 0.0
2014-Dec-16 08:33N 43°34' E 010°18'1 1.0
2014-Dec-16 07:33N 43°34' E 010°19'1 1.0
2014-Dec-16 06:33N 43°34' E 010°18'0 0.0
2014-Dec-16 05:33N 43°34' E 010°18'0 0.0
2014-Dec-16 04:33N 43°34' E 010°18'0 0.0
2014-Dec-16 03:32N 43°34' E 010°18'0 0.0
2014-Dec-16 02:33N 43°34' E 010°18'0 0.0
2014-Dec-16 01:33N 43°34' E 010°18'0 0.0
2014-Dec-16 00:33N 43°34' E 010°18'0 0.0
2014-Dec-15 23:33N 43°34' E 010°18'0 0.0
2014-Dec-15 22:33N 43°34' E 010°18'0 0.0
2014-Dec-15 21:33N 43°34' E 010°18'0 0.0
2014-Dec-15 20:33N 43°34' E 010°18'0 0.2
2014-Dec-15 19:33N 43°34' E 010°18'1 0.7
2014-Dec-15 18:33N 43°33' E 010°18'0 0.5
2014-Dec-15 17:33N 43°34' E 010°18'0 0.0
2014-Dec-15 14:17N 43°34' E 010°18'0 0.0
2014-Dec-15 13:33N 43°34' E 010°18'0 0.0
2014-Dec-15 12:33N 43°34' E 010°18'0 0.0
2014-Dec-15 11:33N 43°34' E 010°18'0 0.0
2014-Dec-15 10:33N 43°34' E 010°18'0 0.0
2014-Dec-15 09:33N 43°34' E 010°18'0 0.0
2014-Dec-15 08:33N 43°34' E 010°18'0 0.0
2014-Dec-15 07:33N 43°34' E 010°18'0 0.0
2014-Dec-15 06:33N 43°34' E 010°18'0 0.0
2014-Dec-14 16:33N 43°34' E 010°18'0 0.0
2014-Dec-14 15:33N 43°34' E 010°18'1 0.5
2014-Dec-14 14:33N 43°34' E 010°19'1 0.6
2014-Dec-14 13:33N 43°34' E 010°18'0 0.0
2014-Dec-14 12:33N 43°34' E 010°18'1 1.0
2014-Dec-14 11:34N 43°35' E 010°18'1 1.0
2014-Dec-14 10:33N 43°34' E 010°18'0 0.0
2014-Dec-14 09:33N 43°34' E 010°18'0 0.0
2014-Dec-14 08:33N 43°34' E 010°18'1 0.6
2014-Dec-14 07:33N 43°33' E 010°18'1 0.6
2014-Dec-14 06:33N 43°34' E 010°18'1 1.1
2014-Dec-14 05:33N 43°35' E 010°19'1 0.0
2014-Dec-12 17:16N 43°34' E 010°18'0 0.3
2014-Dec-12 16:33N 43°34' E 010°18'0 0.2
2014-Dec-12 15:34N 43°34' E 010°18'0 0.0
2014-Dec-12 14:34N 43°34' E 010°18'1 0.9
2014-Dec-12 13:34N 43°35' E 010°18'3 3.4
2014-Dec-12 12:34N 43°32' E 010°16'3 3.1
2014-Dec-12 11:34N 43°34' E 010°18'1 0.6
2014-Dec-12 10:33N 43°34' E 010°18'0 0.0
2014-Dec-12 09:34N 43°34' E 010°18'0 0.0
2014-Dec-12 08:34N 43°34' E 010°18'1 0.7
2014-Dec-12 07:34N 43°34' E 010°18'1 0.7
2014-Dec-12 06:34N 43°34' E 010°18'0 0.0
2014-Dec-12 05:33N 43°34' E 010°18'0 0.0
2014-Dec-11 15:15N 43°34' E 010°18'0 0.0
2014-Dec-11 14:26N 43°34' E 010°18'0 0.0
2014-Dec-11 13:33N 43°34' E 010°18'0 0.0
2014-Dec-11 12:33N 43°34' E 010°18'0 0.0
2014-Dec-11 11:33N 43°34' E 010°18'0 0.0
2014-Dec-11 10:33N 43°34' E 010°18'0 0.0
2014-Dec-11 09:33N 43°34' E 010°18'0 0.0
2014-Dec-11 08:34N 43°34' E 010°18'0 0.0
2014-Dec-11 07:34N 43°34' E 010°18'0 0.0
2014-Dec-11 05:33N 43°34' E 010°18'0 0.0
2014-Dec-10 16:33N 43°34' E 010°18'0 0.0
2014-Dec-10 15:33N 43°34' E 010°18'0 0.0
2014-Dec-10 14:33N 43°34' E 010°18'0 0.0
2014-Dec-10 13:33N 43°34' E 010°18'1 1.0
2014-Dec-10 12:33N 43°33' E 010°17'1 1.0
2014-Dec-10 11:33N 43°34' E 010°18'0 0.0
2014-Dec-10 10:33N 43°34' E 010°18'0 0.0
2014-Dec-10 09:33N 43°34' E 010°18'0 0.0
2014-Dec-10 08:33N 43°34' E 010°18'1 1.1
2014-Dec-10 07:33N 43°35' E 010°18'1 1.1
2014-Dec-10 06:33N 43°34' E 010°18'0 0.0
2014-Dec-10 05:33N 43°34' E 010°18'0 0.0
2014-Dec-09 16:33N 43°34' E 010°18'0 0.0
2014-Dec-09 15:33N 43°34' E 010°18'0 0.0
2014-Dec-09 14:33N 43°34' E 010°18'0 0.2
2014-Dec-09 13:33N 43°34' E 010°18'0 0.2
2014-Dec-09 12:33N 43°34' E 010°18'1 0.8
2014-Dec-09 11:33N 43°34' E 010°18'1 0.8
2014-Dec-09 10:34N 43°34' E 010°18'0 0.0
2014-Dec-09 09:33N 43°34' E 010°18'1 0.7
2014-Dec-09 08:33N 43°33' E 010°18'1 0.7
2014-Dec-09 07:34N 43°34' E 010°18'0 0.0
2014-Dec-09 06:34N 43°34' E 010°18'0 0.0
2014-Dec-09 05:33N 43°34' E 010°18'  
Track history (hours):
 
Tides and Currents Weather Stations Pressure Air Temp Water Temp Dewpoint Dewpoint Depression Visibility Wind Speed Wind Dir Waves Ship Positions

Porto Di Livorno

Last reported at 2014-Dec-18 16:33 UTC. Time now 2014-Dec-19 12:57 UTC.
Position N 43°34' E 010°18'.

Length 24 m; draft 6.1 m.

Type: Tug. MMSI: 247194299.

Date/timePositionNaut miles runAvg speedWind from/ knotsBaromVisibWave heightAir tempDewpointWater temp
2014-Dec-18 16:33N 43°34' E 010°18'0 0.0
2014-Dec-18 15:33N 43°34' E 010°18'0 0.0
2014-Dec-18 14:33N 43°34' E 010°18'0 0.0
2014-Dec-18 13:33N 43°34' E 010°18'0 0.0
2014-Dec-18 12:33N 43°34' E 010°18'2 1.8
2014-Dec-18 11:33N 43°32' E 010°17'2 2.2
2014-Dec-18 10:34N 43°34' E 010°18'2 1.9
2014-Dec-18 09:33N 43°32' E 010°17'1 1.1
2014-Dec-18 08:34N 43°33' E 010°18'1 1.3
2014-Dec-18 07:34N 43°32' E 010°17'0 0.4
2014-Dec-18 06:33N 43°32' E 010°17'3 2.9
2014-Dec-18 05:33N 43°35' E 010°18'1 1.0
2014-Dec-18 04:33N 43°34' E 010°18'0 0.0
2014-Dec-18 03:33N 43°34' E 010°18'0 0.0
2014-Dec-18 02:33N 43°34' E 010°18'0 0.0
2014-Dec-18 01:33N 43°34' E 010°18'1 0.9
2014-Dec-18 00:34N 43°34' E 010°18'1 0.9
2014-Dec-17 23:33N 43°34' E 010°18'0 0.0
2014-Dec-17 22:33N 43°34' E 010°18'0 0.0
2014-Dec-17 21:33N 43°34' E 010°18'1 1.2
2014-Dec-17 20:33N 43°35' E 010°19'1 1.2
2014-Dec-17 19:33N 43°34' E 010°18'0 0.0
2014-Dec-17 18:33N 43°34' E 010°18'0 0.0
2014-Dec-17 17:33N 43°34' E 010°18'0 0.0
2014-Dec-17 14:33N 43°34' E 010°18'0 0.0
2014-Dec-17 13:33N 43°34' E 010°18'0 0.0
2014-Dec-17 12:33N 43°34' E 010°18'0 0.0
2014-Dec-17 11:33N 43°34' E 010°18'0 0.0
2014-Dec-17 10:33N 43°34' E 010°18'0 0.0
2014-Dec-17 09:33N 43°34' E 010°18'0 0.0
2014-Dec-17 08:33N 43°34' E 010°18'0 0.0
2014-Dec-17 07:33N 43°34' E 010°18'0 0.0
2014-Dec-17 06:33N 43°34' E 010°18'0 0.0
2014-Dec-16 16:33N 43°34' E 010°18'0 0.0
2014-Dec-16 15:33N 43°34' E 010°18'0 0.0
2014-Dec-16 14:33N 43°34' E 010°18'0 0.0
2014-Dec-16 13:33N 43°34' E 010°18'0 0.0
2014-Dec-16 12:33N 43°34' E 010°18'0 0.5
2014-Dec-16 11:33N 43°34' E 010°18'0 0.5
2014-Dec-16 10:33N 43°34' E 010°18'0 0.0
2014-Dec-16 09:33N 43°34' E 010°18'0 0.0
2014-Dec-16 08:33N 43°34' E 010°18'1 1.0
2014-Dec-16 07:33N 43°34' E 010°19'1 1.0
2014-Dec-16 06:33N 43°34' E 010°18'0 0.0
2014-Dec-16 05:33N 43°34' E 010°18'0 0.0
2014-Dec-16 04:33N 43°34' E 010°18'0 0.0
2014-Dec-16 03:32N 43°34' E 010°18'0 0.0
2014-Dec-16 02:33N 43°34' E 010°18'0 0.0
2014-Dec-16 01:33N 43°34' E 010°18'0 0.0
2014-Dec-16 00:33N 43°34' E 010°18'0 0.0
2014-Dec-15 23:33N 43°34' E 010°18'0 0.0
2014-Dec-15 22:33N 43°34' E 010°18'0 0.0
2014-Dec-15 21:33N 43°34' E 010°18'0 0.0
2014-Dec-15 20:33N 43°34' E 010°18'0 0.2
2014-Dec-15 19:33N 43°34' E 010°18'1 0.7
2014-Dec-15 18:33N 43°33' E 010°18'0 0.5
2014-Dec-15 17:33N 43°34' E 010°18'0 0.0
2014-Dec-15 14:17N 43°34' E 010°18'0 0.0
2014-Dec-15 13:33N 43°34' E 010°18'0 0.0
2014-Dec-15 12:33N 43°34' E 010°18'0 0.0
2014-Dec-15 11:33N 43°34' E 010°18'0 0.0
2014-Dec-15 10:33N 43°34' E 010°18'0 0.0
2014-Dec-15 09:33N 43°34' E 010°18'0 0.0
2014-Dec-15 08:33N 43°34' E 010°18'0 0.0
2014-Dec-15 07:33N 43°34' E 010°18'0 0.0
2014-Dec-15 06:33N 43°34' E 010°18'0 0.0
2014-Dec-14 16:33N 43°34' E 010°18'0 0.0
2014-Dec-14 15:33N 43°34' E 010°18'1 0.5
2014-Dec-14 14:33N 43°34' E 010°19'1 0.6
2014-Dec-14 13:33N 43°34' E 010°18'0 0.0
2014-Dec-14 12:33N 43°34' E 010°18'1 1.0
2014-Dec-14 11:34N 43°35' E 010°18'1 1.0
2014-Dec-14 10:33N 43°34' E 010°18'0 0.0
2014-Dec-14 09:33N 43°34' E 010°18'0 0.0
2014-Dec-14 08:33N 43°34' E 010°18'1 0.6
2014-Dec-14 07:33N 43°33' E 010°18'1 0.6
2014-Dec-14 06:33N 43°34' E 010°18'1 1.1
2014-Dec-14 05:33N 43°35' E 010°19'1 0.0
2014-Dec-12 17:16N 43°34' E 010°18'0 0.3
2014-Dec-12 16:33N 43°34' E 010°18'0 0.2
2014-Dec-12 15:34N 43°34' E 010°18'0 0.0
2014-Dec-12 14:34N 43°34' E 010°18'1 0.9
2014-Dec-12 13:34N 43°35' E 010°18'3 3.4
2014-Dec-12 12:34N 43°32' E 010°16'3 3.1
2014-Dec-12 11:34N 43°34' E 010°18'1 0.6
2014-Dec-12 10:33N 43°34' E 010°18'0 0.0
2014-Dec-12 09:34N 43°34' E 010°18'0 0.0
2014-Dec-12 08:34N 43°34' E 010°18'1 0.7
2014-Dec-12 07:34N 43°34' E 010°18'1 0.7
2014-Dec-12 06:34N 43°34' E 010°18'0 0.0
2014-Dec-12 05:33N 43°34' E 010°18'0 0.0
2014-Dec-11 15:15N 43°34' E 010°18'0 0.0
2014-Dec-11 14:26N 43°34' E 010°18'0 0.0
2014-Dec-11 13:33N 43°34' E 010°18'0 0.0
2014-Dec-11 12:33N 43°34' E 010°18'0 0.0
2014-Dec-11 11:33N 43°34' E 010°18'0 0.0
2014-Dec-11 10:33N 43°34' E 010°18'0 0.0
2014-Dec-11 09:33N 43°34' E 010°18'0 0.0
2014-Dec-11 08:34N 43°34' E 010°18'0 0.0
2014-Dec-11 07:34N 43°34' E 010°18'0 0.0
2014-Dec-11 05:33N 43°34' E 010°18'0 0.0
2014-Dec-10 16:33N 43°34' E 010°18'0 0.0
2014-Dec-10 15:33N 43°34' E 010°18'0 0.0
2014-Dec-10 14:33N 43°34' E 010°18'0 0.0
2014-Dec-10 13:33N 43°34' E 010°18'1 1.0
2014-Dec-10 12:33N 43°33' E 010°17'1 1.0
2014-Dec-10 11:33N 43°34' E 010°18'0 0.0
2014-Dec-10 10:33N 43°34' E 010°18'0 0.0
2014-Dec-10 09:33N 43°34' E 010°18'0 0.0
2014-Dec-10 08:33N 43°34' E 010°18'1 1.1
2014-Dec-10 07:33N 43°35' E 010°18'1 1.1
2014-Dec-10 06:33N 43°34' E 010°18'0 0.0
2014-Dec-10 05:33N 43°34' E 010°18'0 0.0
2014-Dec-09 16:33N 43°34' E 010°18'0 0.0
2014-Dec-09 15:33N 43°34' E 010°18'0 0.0
2014-Dec-09 14:33N 43°34' E 010°18'0 0.2
2014-Dec-09 13:33N 43°34' E 010°18'0 0.2
2014-Dec-09 12:33N 43°34' E 010°18'1 0.8
2014-Dec-09 11:33N 43°34' E 010°18'1 0.8
2014-Dec-09 10:34N 43°34' E 010°18'0 0.0
2014-Dec-09 09:33N 43°34' E 010°18'1 0.7
2014-Dec-09 08:33N 43°33' E 010°18'1 0.7
2014-Dec-09 07:34N 43°34' E 010°18'0 0.0
2014-Dec-09 06:34N 43°34' E 010°18'0 0.0
2014-Dec-09 05:33N 43°34' E 010°18'  

Dump ship's entire track history